Página principal
METAR-TAF:

METAR-TAF

Aeroportos :

Aeroporto Internacional Yoff-Léopold Sédar Senghor

Dakar, Senegal

latitude: 14-44N, longitude: 017-30W, altura: 27 m

Observação actual do tempo

O boletim foi feito há 10 minutos, às 14:00 UTC
Vento 6 kt de norte
Temperatura 30°C
Humidade 66%
Pressão 1011 hPa
Visibilidade 10 km ou mais
sem nuvens abaixo de 1500 metros e sem cumulonimbus

METAR: GOOY 211400Z 36006KT CAVOK 30/23 Q1011

Hora: 14:10 (14:10 UTC)

Previsão

O boletim foi feito há 2 horas e 40 minutos, às 11:30 UTC
Previsão válida de 21 às 12 UTC a 22 às 18 UTC
Vento 8 kt de norte
Visibilidade 10 km ou mais
sem nuvens abaixo de 1500 metros e sem cumulonimbus

TAF: GOOY 211130Z 2112/2218 36008KT CAVOK

Observações e previsões do tempo de mais de 4000 aeroportos (mensagens METAR e TAF).

As estações disponíveis são os pontos amarelos e vermelhos sobre o mapa.

Mova o rato sobre o mapa para ver o nome da estação.

Depois clique no ponto para visualizar as observações e previsões meteorológicas.

Para alterar o mapa : clique nos botões verdes com uma cruz preta para aumentar o zoom; no botão verde com uma pitada de zoom; ou nas setas verdes para mapas adjacentes.


METAR-TAF: